createdAt,value
2022-11-03T00:02:15.505Z,101078.94
2022-11-03T00:04:45.708Z,101071.28
2022-11-03T00:07:20.270Z,101064.44
2022-11-03T00:09:50.420Z,101063.63
2022-11-03T00:12:18.533Z,101067.91
2022-11-03T00:14:46.518Z,101061.97
2022-11-03T00:17:14.467Z,101065.38
2022-11-03T00:19:42.576Z,101069.59
2022-11-03T00:22:10.501Z,101067.88
2022-11-03T00:24:38.476Z,101063.66
2022-11-03T00:27:07.509Z,101067.06
2022-11-03T00:29:35.406Z,101061.94
2022-11-03T00:32:03.369Z,101061.13
2022-11-03T00:34:32.232Z,101045.00
2022-11-03T00:37:00.207Z,101042.44
2022-11-03T00:39:28.140Z,101048.41
2022-11-03T00:41:57.703Z,101048.41
2022-11-03T00:44:25.643Z,101041.63
2022-11-03T00:46:53.788Z,101038.22
2022-11-03T00:49:22.816Z,101027.16
2022-11-03T00:51:50.812Z,101019.53
2022-11-03T00:54:18.738Z,101036.47
2022-11-03T00:56:49.374Z,101032.19
2022-11-03T00:59:17.413Z,101032.16
2022-11-03T01:01:47.782Z,101027.06
2022-11-03T01:04:37.352Z,101031.28
2022-11-03T01:07:06.905Z,101024.44
2022-11-03T01:09:36.639Z,101032.91
2022-11-03T01:12:07.804Z,101032.88
2022-11-03T01:14:42.062Z,101037.06
2022-11-03T01:17:16.257Z,101043.00
2022-11-03T01:19:44.321Z,101037.00
2022-11-03T01:22:12.660Z,101026.75
2022-11-03T01:24:42.275Z,101029.28
2022-11-03T01:27:13.726Z,101033.53
2022-11-03T01:29:42.381Z,101014.88
2022-11-03T01:32:11.414Z,101024.16
2022-11-03T01:34:39.799Z,101017.31
2022-11-03T01:37:08.415Z,101022.31
2022-11-03T01:39:37.391Z,101017.16
2022-11-03T01:42:06.162Z,101005.25
2022-11-03T01:44:37.426Z,101003.44
2022-11-03T01:47:22.457Z,101002.50
2022-11-03T01:50:12.926Z,100998.16
2022-11-03T01:52:47.090Z,101004.09
2022-11-03T01:55:20.203Z,100998.94
2022-11-03T01:58:02.789Z,101015.97
2022-11-03T02:00:31.052Z,100998.06
2022-11-03T02:02:59.334Z,101001.41
2022-11-03T02:05:30.163Z,100997.09
2022-11-03T02:08:17.804Z,101006.34
2022-11-03T02:10:49.642Z,101004.53
2022-11-03T02:13:23.438Z,101007.00
2022-11-03T02:16:11.501Z,101003.50
2022-11-03T02:18:41.543Z,101007.72
2022-11-03T02:21:13.462Z,101007.59
2022-11-03T02:23:54.851Z,101010.84
2022-11-03T02:26:23.550Z,100997.03
2022-11-03T02:31:53.424Z,100996.66
2022-11-03T02:34:55.420Z,101005.00
2022-11-03T02:37:30.110Z,101014.25
2022-11-03T02:40:07.915Z,101023.50
2022-11-03T02:42:38.620Z,101015.72
2022-11-03T02:45:13.358Z,101019.88
2022-11-03T02:47:45.708Z,101023.13
2022-11-03T02:50:14.069Z,100999.91
2022-11-03T02:52:44.367Z,101009.16
2022-11-03T02:55:21.443Z,100991.31
2022-11-03T02:58:15.085Z,101017.38
2022-11-03T03:01:07.833Z,101013.69
2022-11-03T03:03:59.002Z,101013.28
2022-11-03T03:06:37.678Z,101007.84
2022-11-03T03:09:10.862Z,101015.41
2022-11-03T03:11:43.681Z,101022.78
2022-11-03T03:14:20.481Z,101030.16
2022-11-03T03:16:54.655Z,101022.97
2022-11-03T03:19:41.363Z,101019.25
2022-11-03T03:22:32.686Z,101007.66
2022-11-03T03:25:09.942Z,101015.78
2022-11-03T03:27:44.084Z,101010.31
2022-11-03T03:30:13.379Z,100994.59
2022-11-03T03:32:49.703Z,101010.59
2022-11-03T03:35:23.479Z,100987.66
2022-11-03T03:37:56.845Z,101001.13
2022-11-03T03:40:29.617Z,100997.69
2022-11-03T03:42:59.178Z,101007.16
2022-11-03T03:45:28.589Z,100993.47
2022-11-03T03:47:57.845Z,101006.44
2022-11-03T03:50:27.745Z,100993.56
2022-11-03T03:53:01.260Z,101004.63
2022-11-03T03:55:39.378Z,101002.81
2022-11-03T03:58:08.736Z,101009.50
2022-11-03T04:00:40.625Z,101020.50
2022-11-03T04:03:18.034Z,101022.72
2022-11-03T04:05:46.312Z,101019.81
2022-11-03T04:08:15.609Z,101016.00
2022-11-03T04:11:06.594Z,100992.41
2022-11-03T04:13:53.460Z,100986.88
2022-11-03T04:16:40.747Z,100986.47
2022-11-03T04:19:32.006Z,100973.16
2022-11-03T04:22:19.763Z,100972.69
2022-11-03T04:24:50.236Z,100986.88
2022-11-03T04:27:28.087Z,100985.78
2022-11-03T04:30:15.884Z,100979.59
2022-11-03T04:32:46.195Z,100977.22
2022-11-03T04:35:23.479Z,100983.53
2022-11-03T04:38:20.261Z,100961.34
2022-11-03T04:40:56.273Z,100957.25
2022-11-03T04:43:38.178Z,100934.13
2022-11-03T04:46:06.939Z,100965.47
2022-11-03T04:48:35.087Z,100967.47
2022-11-03T04:51:12.156Z,100974.91
2022-11-03T04:53:43.272Z,100935.84
2022-11-03T04:56:18.100Z,100977.03
2022-11-03T04:58:48.894Z,100987.50
2022-11-03T05:01:24.350Z,100985.19
2022-11-03T05:03:56.111Z,100990.50
2022-11-03T05:06:28.524Z,100976.47
2022-11-03T05:09:00.351Z,100950.03
2022-11-03T05:11:45.268Z,100977.31
2022-11-03T05:14:20.753Z,100991.66
2022-11-03T05:16:54.677Z,100986.28
2022-11-03T05:19:29.608Z,100964.16
2022-11-03T05:21:59.802Z,100980.94
2022-11-03T05:24:28.392Z,100983.44
2022-11-03T05:26:59.104Z,100958.47
2022-11-03T05:29:31.122Z,100979.94
2022-11-03T05:31:59.614Z,100977.34
2022-11-03T05:34:33.986Z,100980.66
2022-11-03T05:37:26.358Z,100996.97
2022-11-03T05:40:22.335Z,100983.13
2022-11-03T05:42:59.718Z,100992.50
2022-11-03T05:45:33.543Z,100989.00
2022-11-03T05:48:03.627Z,100987.91
2022-11-03T05:50:36.332Z,100992.97
2022-11-03T05:53:20.876Z,100991.94
2022-11-03T05:55:49.265Z,100985.78
2022-11-03T05:58:32.018Z,100995.97
2022-11-03T06:01:03.609Z,100984.63
2022-11-03T06:03:35.290Z,100992.47
2022-11-03T06:06:12.618Z,101002.56
2022-11-03T06:08:43.223Z,100986.91
2022-11-03T06:11:29.397Z,100978.94
2022-11-03T06:13:58.981Z,100990.84
2022-11-03T06:16:33.526Z,100985.50
2022-11-03T06:19:13.016Z,100989.66
2022-11-03T06:21:44.552Z,100959.00
2022-11-03T06:24:16.568Z,100983.09
2022-11-03T06:26:48.615Z,101000.06
2022-11-03T06:29:19.282Z,100979.28
2022-11-03T06:31:53.530Z,100987.88
2022-11-03T06:34:46.914Z,100978.16
2022-11-03T06:37:30.183Z,100985.81
2022-11-03T06:40:18.353Z,100974.47
2022-11-03T06:42:46.456Z,100975.25
2022-11-03T06:45:25.915Z,100972.56
2022-11-03T06:47:54.671Z,100970.25
2022-11-03T06:50:33.355Z,100987.94
2022-11-03T06:53:05.208Z,100993.88
2022-11-03T06:55:37.416Z,100984.28
2022-11-03T06:58:41.773Z,100985.03
2022-11-03T07:01:27.799Z,100994.28
2022-11-03T07:04:03.595Z,100985.31
2022-11-03T07:06:37.638Z,100994.56
2022-11-03T07:09:14.163Z,101001.31
2022-11-03T07:11:49.535Z,100996.06
2022-11-03T07:14:23.421Z,100999.41
2022-11-03T07:17:03.454Z,101008.94
2022-11-03T07:19:37.725Z,101014.91
2022-11-03T07:22:22.206Z,101012.31
2022-11-03T07:24:55.649Z,101010.63
2022-11-03T07:27:28.835Z,101017.63
2022-11-03T07:30:14.969Z,101011.75
2022-11-03T07:32:43.177Z,101023.88
2022-11-03T07:36:08.316Z,101025.69
2022-11-03T07:38:30.642Z,101023.09
2022-11-03T07:40:59.907Z,101026.59
2022-11-03T07:43:37.236Z,101018.97
2022-11-03T07:46:07.020Z,101021.41
2022-11-03T07:48:40.594Z,101017.13
2022-11-03T07:51:24.747Z,101016.28
2022-11-03T07:53:57.658Z,101029.25
2022-11-03T07:56:34.867Z,101024.97
2022-11-03T07:59:07.763Z,101020.72
2022-11-03T08:01:41.385Z,101012.22
2022-11-03T08:04:12.703Z,101015.88
2022-11-03T08:06:40.680Z,101016.84
2022-11-03T08:09:10.620Z,101008.34
2022-11-03T08:11:38.487Z,101020.47
2022-11-03T08:14:06.556Z,101020.47
2022-11-03T08:16:35.498Z,101021.41
2022-11-03T08:19:03.751Z,101011.38
2022-11-03T08:21:31.776Z,101025.00
2022-11-03T08:24:02.496Z,101027.66
2022-11-03T08:26:30.531Z,101040.53
2022-11-03T08:28:58.496Z,101039.69
2022-11-03T08:31:26.576Z,101043.25
2022-11-03T08:33:54.740Z,101029.78
2022-11-03T08:36:22.840Z,101047.75
2022-11-03T08:38:52.283Z,101043.47
2022-11-03T08:41:20.280Z,101044.63
2022-11-03T08:43:48.295Z,101047.94
2022-11-03T08:46:18.043Z,101042.09
2022-11-03T08:48:47.349Z,101054.88
2022-11-03T08:51:17.089Z,101053.97
2022-11-03T08:53:46.711Z,101060.00
2022-11-03T08:56:16.945Z,101056.63
2022-11-03T08:58:48.150Z,101051.69
2022-11-03T09:01:17.130Z,101054.09
2022-11-03T09:03:47.185Z,101056.88
2022-11-03T09:06:15.172Z,101055.91
2022-11-03T09:11:31.239Z,101059.41
2022-11-03T09:13:59.380Z,101061.16
2022-11-03T09:16:27.348Z,101055.06
2022-11-03T09:18:55.529Z,101076.75
2022-11-03T09:21:24.727Z,101058.81
2022-11-03T09:23:52.867Z,101069.91
2022-11-03T09:26:20.853Z,101070.81
2022-11-03T09:28:51.029Z,101078.44
2022-11-03T09:31:20.255Z,101075.00
2022-11-03T09:33:48.165Z,101080.00
2022-11-03T09:36:17.095Z,101086.03
2022-11-03T09:38:45.026Z,101087.84
2022-11-03T09:41:45.776Z,101075.16
2022-11-03T09:44:13.664Z,101082.00
2022-11-03T09:46:41.953Z,101091.53
2022-11-03T09:49:15.388Z,101092.50
2022-11-03T09:51:44.079Z,101096.00
2022-11-03T09:54:16.283Z,101098.59
2022-11-03T09:56:50.447Z,101094.38
2022-11-03T09:59:24.453Z,101101.31
2022-11-03T10:01:54.792Z,101099.63
2022-11-03T10:04:29.591Z,101092.16
2022-11-03T10:06:59.611Z,101078.84
2022-11-03T10:09:30.209Z,101114.44
2022-11-03T10:11:58.349Z,101111.03
2022-11-03T10:14:26.372Z,101108.50
2022-11-03T10:17:01.228Z,101121.50
2022-11-03T10:19:34.629Z,101112.84
2022-11-03T10:22:02.627Z,101121.44
2022-11-03T10:24:30.564Z,101121.50
2022-11-03T10:26:58.601Z,101120.66
2022-11-03T10:29:29.128Z,101125.00
2022-11-03T10:31:59.390Z,101129.34
2022-11-03T10:34:38.928Z,101131.94
2022-11-03T10:37:21.551Z,101135.44
2022-11-03T10:40:00.359Z,101138.91
2022-11-03T10:42:35.516Z,101138.97
2022-11-03T10:45:23.520Z,101148.50
2022-11-03T10:48:10.290Z,101145.97
2022-11-03T10:50:41.463Z,101146.88
2022-11-03T10:53:21.231Z,101153.94
2022-11-03T10:55:50.631Z,101166.75
2022-11-03T10:58:18.621Z,101163.38
2022-11-03T11:00:46.639Z,101159.94
2022-11-03T11:03:18.125Z,101156.72
2022-11-03T11:05:50.039Z,101169.50
2022-11-03T11:08:24.238Z,101174.69
2022-11-03T11:10:52.336Z,101176.47
2022-11-03T11:13:22.486Z,101179.91
2022-11-03T11:15:52.217Z,101180.81
2022-11-03T11:18:29.319Z,101186.75
2022-11-03T11:21:00.107Z,101182.34
2022-11-03T11:23:27.962Z,101195.25
2022-11-03T11:26:11.594Z,101195.97
2022-11-03T11:29:01.037Z,101201.94
2022-11-03T11:31:32.466Z,101200.19
2022-11-03T11:34:21.633Z,101201.94
2022-11-03T11:36:55.859Z,101208.88
2022-11-03T11:39:31.787Z,101205.44
2022-11-03T11:42:23.608Z,101217.53
2022-11-03T11:44:59.578Z,101208.19
2022-11-03T11:47:51.512Z,101222.00
2022-11-03T11:50:25.272Z,101220.13
2022-11-03T11:53:27.622Z,101222.13
2022-11-03T11:56:02.515Z,101228.81
2022-11-03T11:58:47.022Z,101232.25
2022-11-03T12:01:33.933Z,101233.97
2022-11-03T12:04:04.617Z,101245.19
2022-11-03T12:06:40.932Z,101238.25
2022-11-03T12:09:23.604Z,101252.06
2022-11-03T12:11:57.197Z,101244.34
2022-11-03T12:14:31.874Z,101248.81
2022-11-03T12:17:21.477Z,101250.53
2022-11-03T12:19:52.696Z,101259.28
2022-11-03T12:22:26.929Z,101254.94
2022-11-03T12:25:00.140Z,101249.97
2022-11-03T12:27:28.123Z,101263.69
2022-11-03T12:30:02.819Z,101268.03
2022-11-03T12:32:35.210Z,101264.59
2022-11-03T12:35:08.934Z,101252.72
2022-11-03T12:37:38.812Z,101268.25
2022-11-03T12:40:07.658Z,101268.31
2022-11-03T12:42:35.793Z,101263.13
2022-11-03T12:45:04.171Z,101263.19
2022-11-03T12:47:32.343Z,101263.25
2022-11-03T12:50:00.341Z,101267.59
2022-11-03T12:52:28.510Z,101275.34
2022-11-03T12:54:56.399Z,101267.66
2022-11-03T12:57:24.401Z,101272.09
2022-11-03T12:59:53.196Z,101273.72
2022-11-03T13:02:21.392Z,101263.44
2022-11-03T13:04:49.755Z,101264.28
2022-11-03T13:07:26.608Z,101257.63
2022-11-03T13:09:57.244Z,101265.28
2022-11-03T13:12:36.539Z,101263.53
2022-11-03T13:15:07.549Z,101263.47
2022-11-03T13:17:59.406Z,101262.63
2022-11-03T13:20:25.606Z,101261.78
2022-11-03T13:22:53.566Z,101267.81
2022-11-03T13:25:21.546Z,101269.56
2022-11-03T13:27:54.413Z,101266.13
2022-11-03T13:30:23.944Z,101270.41
2022-11-03T13:32:52.273Z,101279.06
2022-11-03T13:35:20.714Z,101256.91
2022-11-03T13:37:48.724Z,101262.03
2022-11-03T13:43:08.672Z,101267.13
2022-11-03T13:45:36.887Z,101267.94
2022-11-03T13:50:54.640Z,101286.91
2022-11-03T13:56:20.812Z,101280.03
2022-11-03T14:01:41.122Z,101284.25
2022-11-03T14:07:01.400Z,101286.84
2022-11-03T14:09:29.691Z,101286.00
2022-11-03T14:12:17.350Z,101291.19
2022-11-03T14:14:45.838Z,101304.13
2022-11-03T14:17:13.944Z,101307.56
2022-11-03T14:19:46.175Z,101298.09
2022-11-03T14:22:17.311Z,101313.56
2022-11-03T14:24:45.219Z,101301.53
2022-11-03T14:27:15.759Z,101294.88
2022-11-03T14:29:44.547Z,101310.19
2022-11-03T14:32:13.718Z,101313.00
2022-11-03T14:34:42.855Z,101321.56
2022-11-03T14:37:11.757Z,101330.19
2022-11-03T14:39:40.447Z,101327.59
2022-11-03T14:42:16.891Z,101338.78
2022-11-03T14:44:48.398Z,101338.84
2022-11-03T14:47:18.692Z,101341.59
2022-11-03T14:49:47.557Z,101350.16
2022-11-03T14:52:16.660Z,101347.63
2022-11-03T14:54:45.050Z,101349.31
2022-11-03T14:57:14.773Z,101352.75
2022-11-03T14:59:42.538Z,101343.28
2022-11-03T15:02:11.302Z,101348.50
2022-11-03T15:04:40.718Z,101349.63
2022-11-03T15:07:08.765Z,101350.38
2022-11-03T15:09:38.021Z,101355.53
2022-11-03T15:12:06.202Z,101355.59
2022-11-03T15:14:34.453Z,101361.72
2022-11-03T15:17:02.717Z,101350.56
2022-11-03T15:19:32.756Z,101361.84
2022-11-03T15:22:00.778Z,101355.91
2022-11-03T15:27:17.143Z,101335.84
2022-11-03T15:29:45.178Z,101362.28
2022-11-03T15:32:13.102Z,101364.16
2022-11-03T15:34:41.242Z,101360.84
2022-11-03T15:37:09.237Z,101362.72
2022-11-03T15:39:37.182Z,101356.81
2022-11-03T15:42:07.551Z,101358.75
2022-11-03T15:44:35.584Z,101358.84
2022-11-03T15:47:03.690Z,101363.34
2022-11-03T15:49:32.619Z,101354.97
2022-11-03T15:52:00.503Z,101354.34
2022-11-03T15:54:28.761Z,101341.16
2022-11-03T15:56:56.978Z,101360.72
2022-11-03T15:59:24.906Z,101366.06
2022-11-03T16:01:59.480Z,101367.16
2022-11-03T16:04:32.081Z,101341.88
2022-11-03T16:07:20.252Z,101369.41
2022-11-03T16:09:50.110Z,101366.13
2022-11-03T16:12:18.038Z,101368.84
2022-11-03T16:14:46.104Z,101331.78
2022-11-03T16:17:14.352Z,101374.19
2022-11-03T16:19:42.353Z,101368.41
2022-11-03T16:22:10.415Z,101377.00
2022-11-03T16:24:38.484Z,101381.41
2022-11-03T16:27:06.384Z,101386.75
2022-11-03T16:29:34.491Z,101385.16
2022-11-03T16:32:03.758Z,101362.84
2022-11-03T16:34:31.688Z,101380.97
2022-11-03T16:37:01.293Z,101373.44
2022-11-03T16:39:31.796Z,101377.66
2022-11-03T16:41:59.792Z,101381.19
2022-11-03T16:44:28.167Z,101389.09
2022-11-03T16:46:56.323Z,101387.44
2022-11-03T16:49:24.493Z,101388.38
2022-11-03T16:51:52.777Z,101379.75
2022-11-03T16:54:21.778Z,101379.78
2022-11-03T16:56:54.523Z,101384.94
2022-11-03T16:59:26.361Z,101379.78
2022-11-03T17:01:56.835Z,101379.16
2022-11-03T17:04:24.993Z,101389.44
2022-11-03T17:06:52.881Z,101381.84
2022-11-03T17:09:21.366Z,101387.19
2022-11-03T17:11:51.506Z,101366.03
2022-11-03T17:14:19.481Z,101399.53
2022-11-03T17:16:49.138Z,101374.81
2022-11-03T17:19:16.981Z,101385.81
2022-11-03T17:21:48.090Z,101394.44
2022-11-03T17:24:17.115Z,101386.97
2022-11-03T17:26:53.697Z,101387.94
2022-11-03T17:29:29.883Z,101392.38
2022-11-03T17:31:57.865Z,101384.75
2022-11-03T17:34:26.216Z,101377.25
2022-11-03T17:36:56.791Z,101387.44
2022-11-03T17:39:33.092Z,101385.00
2022-11-03T17:42:22.450Z,101387.59
2022-11-03T17:44:52.389Z,101385.16
2022-11-03T17:47:21.246Z,101393.75
2022-11-03T17:49:49.794Z,101386.91
2022-11-03T17:52:25.050Z,101391.28
2022-11-03T17:54:59.656Z,101385.25
2022-11-03T17:57:27.945Z,101380.16
2022-11-03T17:59:59.207Z,101381.16
2022-11-03T18:02:31.418Z,101381.25
2022-11-03T18:05:13.048Z,101384.88
2022-11-03T18:07:43.504Z,101385.94
2022-11-03T18:10:11.452Z,101391.78
2022-11-03T18:13:06.644Z,101387.47
2022-11-03T18:15:39.811Z,101384.00
2022-11-03T18:18:23.119Z,101401.25
2022-11-03T18:20:54.034Z,101398.78
2022-11-03T18:23:25.501Z,101399.78
2022-11-03T18:25:54.536Z,101403.31
2022-11-03T18:28:22.835Z,101394.81
2022-11-03T18:30:54.084Z,101397.53
2022-11-03T18:33:34.526Z,101395.03
2022-11-03T18:36:07.705Z,101388.09
2022-11-03T18:38:38.035Z,101381.13
2022-11-03T18:41:28.762Z,101387.06
2022-11-03T18:43:57.597Z,101388.72
2022-11-03T18:46:25.459Z,101387.00
2022-11-03T18:48:53.469Z,101372.47
2022-11-03T18:51:23.454Z,101380.06
2022-11-03T18:53:51.451Z,101385.25
2022-11-03T18:56:21.095Z,101387.06
2022-11-03T18:58:51.690Z,101387.13
2022-11-03T19:01:28.418Z,101383.72
2022-11-03T19:03:59.518Z,101386.34
2022-11-03T19:06:27.880Z,101385.47
2022-11-03T19:09:00.404Z,101382.03
2022-11-03T19:11:29.751Z,101394.94
2022-11-03T19:13:57.881Z,101382.13
2022-11-03T19:16:26.882Z,101376.31
2022-11-03T19:18:54.954Z,101372.00
2022-11-03T19:21:25.715Z,101380.56
2022-11-03T19:23:57.220Z,101381.41
2022-11-03T19:26:32.280Z,101392.56
2022-11-03T19:29:25.026Z,101390.00
2022-11-03T19:31:54.743Z,101378.09
2022-11-03T19:34:26.813Z,101378.88
2022-11-03T19:36:55.150Z,101392.63
2022-11-03T19:39:35.847Z,101378.03
2022-11-03T19:42:31.637Z,101378.94
2022-11-03T19:45:04.442Z,101382.34
2022-11-03T19:47:52.556Z,101388.38
2022-11-03T19:50:37.089Z,101381.50
2022-11-03T19:53:08.029Z,101385.78
2022-11-03T19:55:41.030Z,101387.50
2022-11-03T19:58:23.731Z,101379.09
2022-11-03T20:00:53.128Z,101390.97
2022-11-03T20:03:22.783Z,101390.13
2022-11-03T20:05:58.112Z,101384.16
2022-11-03T20:08:28.688Z,101393.59
2022-11-03T20:10:57.449Z,101388.44
2022-11-03T20:13:36.022Z,101369.69
2022-11-03T20:16:04.183Z,101383.25
2022-11-03T20:18:32.165Z,101391.81
2022-11-03T20:21:00.497Z,101386.63
2022-11-03T20:23:31.713Z,101393.50
2022-11-03T20:26:00.479Z,101383.19
2022-11-03T20:28:31.096Z,101392.63
2022-11-03T20:31:01.717Z,101364.47
2022-11-03T20:33:31.109Z,101377.13
2022-11-03T20:36:02.232Z,101384.81
2022-11-03T20:38:30.315Z,101389.09
2022-11-03T20:40:59.590Z,101389.06
2022-11-03T20:43:42.027Z,101383.06
2022-11-03T20:46:16.163Z,101390.75
2022-11-03T20:48:44.218Z,101377.91
2022-11-03T20:51:20.433Z,101375.28
2022-11-03T20:53:50.006Z,101384.75
2022-11-03T20:56:21.017Z,101387.25
2022-11-03T20:58:50.813Z,101393.25
2022-11-03T21:01:35.006Z,101398.38
2022-11-03T21:04:07.525Z,101388.06
2022-11-03T21:06:36.417Z,101393.22
2022-11-03T21:09:05.946Z,101389.78
2022-11-03T21:11:40.626Z,101399.19
2022-11-03T21:14:18.809Z,101394.84
2022-11-03T21:17:06.824Z,101398.25
2022-11-03T21:19:53.463Z,101399.94
2022-11-03T21:22:51.500Z,101388.78
2022-11-03T21:25:22.458Z,101398.19
2022-11-03T21:27:52.150Z,101382.91
2022-11-03T21:30:20.597Z,101393.94
2022-11-03T21:32:48.645Z,101400.72
2022-11-03T21:35:20.965Z,101391.22
2022-11-03T21:37:49.055Z,101401.53
2022-11-03T21:40:17.287Z,101391.22
2022-11-03T21:43:05.736Z,101393.09
2022-11-03T21:45:34.387Z,101392.91
2022-11-03T21:48:21.332Z,101392.03
2022-11-03T21:50:49.952Z,101398.03
2022-11-03T21:53:17.971Z,101394.56
2022-11-03T21:55:51.650Z,101390.22
2022-11-03T21:58:19.572Z,101397.09
2022-11-03T22:00:47.761Z,101390.19
2022-11-03T22:03:17.698Z,101395.38
2022-11-03T22:05:45.770Z,101393.75
2022-11-03T22:08:24.942Z,101389.53
2022-11-03T22:10:53.137Z,101385.22
2022-11-03T22:13:21.136Z,101370.75
2022-11-03T22:16:07.687Z,101376.69
2022-11-03T22:18:35.649Z,101373.22
2022-11-03T22:21:22.326Z,101384.34
2022-11-03T22:24:08.517Z,101369.81
2022-11-03T22:26:56.709Z,101385.22
2022-11-03T22:29:42.808Z,101373.28
2022-11-03T22:32:15.846Z,101385.31
2022-11-03T22:35:01.998Z,101391.34
2022-11-03T22:40:18.457Z,101359.28
2022-11-03T22:43:05.058Z,101401.91
2022-11-03T22:45:51.604Z,101386.41
2022-11-03T22:48:21.255Z,101389.03
2022-11-03T22:50:48.994Z,101379.53
2022-11-03T22:53:36.220Z,101380.44
2022-11-03T22:56:04.259Z,101381.34
2022-11-03T22:58:32.196Z,101381.41
2022-11-03T23:01:07.471Z,101384.00
2022-11-03T23:03:37.553Z,101382.31
2022-11-03T23:06:10.239Z,101389.97
2022-11-03T23:08:43.510Z,101352.69
2022-11-03T23:11:17.613Z,101400.25
2022-11-03T23:13:53.891Z,101407.13
2022-11-03T23:16:24.577Z,101391.75
2022-11-03T23:19:11.423Z,101373.69
2022-11-03T23:21:39.829Z,101392.50
2022-11-03T23:24:26.639Z,101393.41
2022-11-03T23:26:54.654Z,101391.78
2022-11-03T23:29:22.846Z,101398.72
2022-11-03T23:31:51.003Z,101400.53
2022-11-03T23:34:19.274Z,101392.97
2022-11-03T23:36:47.599Z,101396.34
2022-11-03T23:39:17.731Z,101391.31
2022-11-03T23:41:46.170Z,101396.47
2022-11-03T23:44:16.038Z,101388.78
2022-11-03T23:47:03.150Z,101396.47
2022-11-03T23:49:31.226Z,101386.25
2022-11-03T23:51:59.403Z,101395.72
2022-11-03T23:54:30.608Z,101401.72
2022-11-03T23:57:17.013Z,101396.56
